sensor_id;sensor_type;location;lat;lon;timestamp;pressure;altitude;pressure_sealevel;temperature;humidity
60583;BME280;46415;47.536;19.066;2023-02-15T00:00:10;102157.28;;;-0.25;100.00
60583;BME280;46415;47.536;19.066;2023-02-15T00:03:16;102151.00;;;-0.34;100.00
60583;BME280;46415;47.536;19.066;2023-02-15T00:06:19;102157.66;;;-0.39;100.00
60583;BME280;46415;47.536;19.066;2023-02-15T00:09:22;102151.66;;;-0.42;100.00
60583;BME280;46415;47.536;19.066;2023-02-15T00:12:24;102147.28;;;-0.46;100.00
60583;BME280;46415;47.536;19.066;2023-02-15T00:15:27;102147.22;;;-0.47;100.00
60583;BME280;46415;47.536;19.066;2023-02-15T00:18:30;102149.59;;;-0.55;100.00
60583;BME280;46415;47.536;19.066;2023-02-15T00:21:36;102157.91;;;-0.60;100.00
60583;BME280;46415;47.536;19.066;2023-02-15T00:24:38;102152.75;;;-0.62;100.00
60583;BME280;46415;47.536;19.066;2023-02-15T00:27:41;102161.97;;;-0.67;100.00
60583;BME280;46415;47.536;19.066;2023-02-15T00:30:44;102155.13;;;-0.68;100.00
60583;BME280;46415;47.536;19.066;2023-02-15T00:33:47;102155.75;;;-0.75;100.00
60583;BME280;46415;47.536;19.066;2023-02-15T00:36:50;102153.13;;;-0.76;100.00
60583;BME280;46415;47.536;19.066;2023-02-15T00:39:53;102158.97;;;-0.80;100.00
60583;BME280;46415;47.536;19.066;2023-02-15T00:42:56;102151.31;;;-0.80;100.00
60583;BME280;46415;47.536;19.066;2023-02-15T00:45:59;102150.38;;;-0.84;100.00
60583;BME280;46415;47.536;19.066;2023-02-15T00:49:03;102148.09;;;-0.75;100.00
60583;BME280;46415;47.536;19.066;2023-02-15T00:52:06;102152.34;;;-0.75;100.00
60583;BME280;46415;47.536;19.066;2023-02-15T00:55:10;102151.41;;;-0.77;100.00
60583;BME280;46415;47.536;19.066;2023-02-15T00:58:13;102144.44;;;-0.83;100.00
60583;BME280;46415;47.536;19.066;2023-02-15T01:01:19;102149.66;;;-0.80;100.00
60583;BME280;46415;47.536;19.066;2023-02-15T01:04:22;102150.06;;;-0.93;100.00
60583;BME280;46415;47.536;19.066;2023-02-15T01:07:25;102148.13;;;-1.02;100.00
60583;BME280;46415;47.536;19.066;2023-02-15T01:10:28;102145.47;;;-1.05;100.00
60583;BME280;46415;47.536;19.066;2023-02-15T01:13:31;102151.16;;;-1.12;100.00
60583;BME280;46415;47.536;19.066;2023-02-15T01:16:34;102153.56;;;-1.16;100.00
60583;BME280;46415;47.536;19.066;2023-02-15T01:19:37;102144.34;;;-1.13;100.00
60583;BME280;46415;47.536;19.066;2023-02-15T01:22:41;102145.13;;;-1.15;100.00
60583;BME280;46415;47.536;19.066;2023-02-15T01:25:43;102151.09;;;-1.15;100.00
60583;BME280;46415;47.536;19.066;2023-02-15T01:28:46;102139.81;;;-1.21;100.00
60583;BME280;46415;47.536;19.066;2023-02-15T01:31:49;102140.75;;;-1.19;100.00
60583;BME280;46415;47.536;19.066;2023-02-15T01:34:52;102143.78;;;-1.30;100.00
60583;BME280;46415;47.536;19.066;2023-02-15T01:37:56;102138.56;;;-1.34;100.00
60583;BME280;46415;47.536;19.066;2023-02-15T01:40:59;102139.69;;;-1.26;100.00
60583;BME280;46415;47.536;19.066;2023-02-15T01:50:58;102119.16;;;-1.56;100.00
60583;BME280;46415;47.536;19.066;2023-02-15T01:54:25;102124.87;;;-1.63;100.00
60583;BME280;46415;47.536;19.066;2023-02-15T01:57:31;102123.06;;;-1.66;100.00
60583;BME280;46415;47.536;19.066;2023-02-15T02:00:34;102126.53;;;-1.63;100.00
60583;BME280;46415;47.536;19.066;2023-02-15T02:04:16;102119.56;;;-1.69;100.00
60583;BME280;46415;47.536;19.066;2023-02-15T02:07:12;102124.44;;;-1.75;100.00
60583;BME280;46415;47.536;19.066;2023-02-15T02:10:19;102127.12;;;-1.71;100.00
60583;BME280;46415;47.536;19.066;2023-02-15T02:13:22;102123.62;;;-1.74;100.00
60583;BME280;46415;47.536;19.066;2023-02-15T02:30:37;102117.13;;;-1.90;100.00
60583;BME280;46415;47.536;19.066;2023-02-15T02:40:28;102124.75;;;-1.90;100.00
60583;BME280;46415;47.536;19.066;2023-02-15T02:43:38;102124.63;;;-1.94;100.00
60583;BME280;46415;47.536;19.066;2023-02-15T02:46:48;102124.56;;;-1.96;100.00
60583;BME280;46415;47.536;19.066;2023-02-15T02:49:58;102122.88;;;-1.95;100.00
60583;BME280;46415;47.536;19.066;2023-02-15T02:53:02;102128.56;;;-2.02;100.00
60583;BME280;46415;47.536;19.066;2023-02-15T02:56:11;102124.87;;;-2.11;100.00
60583;BME280;46415;47.536;19.066;2023-02-15T02:59:29;102129.09;;;-2.11;100.00
60583;BME280;46415;47.536;19.066;2023-02-15T03:02:37;102132.47;;;-2.12;100.00
60583;BME280;46415;47.536;19.066;2023-02-15T03:05:45;102126.50;;;-2.13;100.00
60583;BME280;46415;47.536;19.066;2023-02-15T03:09:01;102126.41;;;-2.16;100.00
60583;BME280;46415;47.536;19.066;2023-02-15T03:12:06;102136.44;;;-2.19;100.00
60583;BME280;46415;47.536;19.066;2023-02-15T03:15:25;102122.13;;;-2.17;100.00
60583;BME280;46415;47.536;19.066;2023-02-15T03:18:35;102132.41;;;-2.14;100.00
60583;BME280;46415;47.536;19.066;2023-02-15T03:21:47;102128.16;;;-2.15;100.00
60583;BME280;46415;47.536;19.066;2023-02-15T03:25:33;102127.94;;;-2.21;100.00
60583;BME280;46415;47.536;19.066;2023-02-15T03:28:42;102126.44;;;-2.14;100.00
60583;BME280;46415;47.536;19.066;2023-02-15T03:31:50;102127.28;;;-2.15;100.00
60583;BME280;46415;47.536;19.066;2023-02-15T03:34:55;102131.44;;;-2.17;100.00
60583;BME280;46415;47.536;19.066;2023-02-15T03:38:00;102137.66;;;-2.09;100.00
60583;BME280;46415;47.536;19.066;2023-02-15T03:41:05;102134.25;;;-2.10;100.00
60583;BME280;46415;47.536;19.066;2023-02-15T03:44:18;102140.16;;;-2.11;100.00
60583;BME280;46415;47.536;19.066;2023-02-15T03:47:28;102136.69;;;-2.13;100.00
60583;BME280;46415;47.536;19.066;2023-02-15T03:50:35;102134.06;;;-2.14;100.00
60583;BME280;46415;47.536;19.066;2023-02-15T03:54:03;102136.59;;;-2.16;100.00
60583;BME280;46415;47.536;19.066;2023-02-15T03:57:09;102138.13;;;-2.19;100.00
60583;BME280;46415;47.536;19.066;2023-02-15T04:00:35;102137.16;;;-2.23;100.00
60583;BME280;46415;47.536;19.066;2023-02-15T04:04:03;102133.03;;;-2.19;100.00
60583;BME280;46415;47.536;19.066;2023-02-15T04:07:08;102133.03;;;-2.19;100.00
60583;BME280;46415;47.536;19.066;2023-02-15T04:10:11;102130.72;;;-2.13;100.00
60583;BME280;46415;47.536;19.066;2023-02-15T04:13:32;102129.19;;;-2.08;100.00
60583;BME280;46415;47.536;19.066;2023-02-15T04:16:35;102127.50;;;-2.09;100.00
60583;BME280;46415;47.536;19.066;2023-02-15T04:19:38;102127.38;;;-2.12;100.00
60583;BME280;46415;47.536;19.066;2023-02-15T04:23:00;102135.00;;;-2.12;100.00
60583;BME280;46415;47.536;19.066;2023-02-15T04:26:21;102130.84;;;-2.10;100.00
60583;BME280;46415;47.536;19.066;2023-02-15T04:29:25;102128.37;;;-2.09;100.00
60583;BME280;46415;47.536;19.066;2023-02-15T04:32:28;102128.16;;;-2.15;100.00
60583;BME280;46415;47.536;19.066;2023-02-15T04:35:31;102124.75;;;-2.14;100.00
60583;BME280;46415;47.536;19.066;2023-02-15T04:38:34;102127.31;;;-2.14;100.00
60583;BME280;46415;47.536;19.066;2023-02-15T04:41:36;102133.00;;;-2.21;100.00
60583;BME280;46415;47.536;19.066;2023-02-15T04:44:39;102135.44;;;-2.24;100.00
60583;BME280;46415;47.536;19.066;2023-02-15T04:47:42;102136.13;;;-2.28;100.00
60583;BME280;46415;47.536;19.066;2023-02-15T04:50:45;102128.97;;;-2.38;100.00
60583;BME280;46415;47.536;19.066;2023-02-15T04:53:48;102135.56;;;-2.43;100.00
60583;BME280;46415;47.536;19.066;2023-02-15T04:56:51;102136.78;;;-2.33;100.00
60583;BME280;46415;47.536;19.066;2023-02-15T04:59:54;102139.19;;;-2.36;100.00
60583;BME280;46415;47.536;19.066;2023-02-15T05:02:57;102139.13;;;-2.38;100.00
60583;BME280;46415;47.536;19.066;2023-02-15T05:06:00;102140.62;;;-2.43;100.00
60583;BME280;46415;47.536;19.066;2023-02-15T05:09:03;102138.06;;;-2.44;100.00
60583;BME280;46415;47.536;19.066;2023-02-15T05:12:06;102143.00;;;-2.48;100.00
60583;BME280;46415;47.536;19.066;2023-02-15T05:15:09;102146.44;;;-2.47;100.00
60583;BME280;46415;47.536;19.066;2023-02-15T05:18:12;102143.94;;;-2.45;100.00
60583;BME280;46415;47.536;19.066;2023-02-15T05:21:14;102145.31;;;-2.54;100.00
60583;BME280;46415;47.536;19.066;2023-02-15T05:24:19;102151.16;;;-2.56;100.00
60583;BME280;46415;47.536;19.066;2023-02-15T05:27:39;102155.31;;;-2.58;100.00
60583;BME280;46415;47.536;19.066;2023-02-15T05:31:13;102164.56;;;-2.60;100.00
60583;BME280;46415;47.536;19.066;2023-02-15T05:34:16;102161.69;;;-2.69;100.00
60583;BME280;46415;47.536;19.066;2023-02-15T05:37:19;102169.09;;;-2.74;100.00
60583;BME280;46415;47.536;19.066;2023-02-15T05:40:22;102174.94;;;-2.76;100.00
60583;BME280;46415;47.536;19.066;2023-02-15T05:43:25;102175.00;;;-2.75;100.00
60583;BME280;46415;47.536;19.066;2023-02-15T05:46:28;102180.09;;;-2.75;100.00
60583;BME280;46415;47.536;19.066;2023-02-15T05:49:31;102176.06;;;-2.70;100.00
60583;BME280;46415;47.536;19.066;2023-02-15T05:52:34;102180.19;;;-2.72;100.00
60583;BME280;46415;47.536;19.066;2023-02-15T05:55:38;102185.34;;;-2.70;100.00
60583;BME280;46415;47.536;19.066;2023-02-15T05:58:41;102178.84;;;-2.64;100.00
60583;BME280;46415;47.536;19.066;2023-02-15T06:01:45;102180.09;;;-2.53;100.00
60583;BME280;46415;47.536;19.066;2023-02-15T06:04:47;102184.56;;;-2.47;100.00
60583;BME280;46415;47.536;19.066;2023-02-15T06:07:50;102189.87;;;-2.41;100.00
60583;BME280;46415;47.536;19.066;2023-02-15T06:10:53;102182.97;;;-2.43;100.00
60583;BME280;46415;47.536;19.066;2023-02-15T06:13:55;102195.06;;;-2.38;100.00
60583;BME280;46415;47.536;19.066;2023-02-15T06:16:58;102186.75;;;-2.34;100.00
60583;BME280;46415;47.536;19.066;2023-02-15T06:20:01;102186.75;;;-2.34;100.00
60583;BME280;46415;47.536;19.066;2023-02-15T06:23:05;102187.66;;;-2.32;100.00
60583;BME280;46415;47.536;19.066;2023-02-15T06:26:08;102190.41;;;-2.27;100.00
60583;BME280;46415;47.536;19.066;2023-02-15T06:29:11;102196.47;;;-2.24;100.00
60583;BME280;46415;47.536;19.066;2023-02-15T06:32:13;102193.34;;;-2.17;100.00
60583;BME280;46415;47.536;19.066;2023-02-15T06:35:16;102190.22;;;-2.10;100.00
60583;BME280;46415;47.536;19.066;2023-02-15T06:38:21;102196.56;;;-1.98;100.00
60583;BME280;46415;47.536;19.066;2023-02-15T06:41:24;102196.88;;;-1.89;100.00
60583;BME280;46415;47.536;19.066;2023-02-15T06:44:27;102201.38;;;-1.82;100.00
60583;BME280;46415;47.536;19.066;2023-02-15T06:47:30;102206.91;;;-1.70;100.00
60583;BME280;46415;47.536;19.066;2023-02-15T06:50:32;102206.47;;;-1.58;100.00
60583;BME280;46415;47.536;19.066;2023-02-15T06:53:35;102206.84;;;-1.48;100.00
60583;BME280;46415;47.536;19.066;2023-02-15T06:56:38;102218.31;;;-1.35;100.00
60583;BME280;46415;47.536;19.066;2023-02-15T06:59:41;102204.88;;;-1.31;100.00
60583;BME280;46415;47.536;19.066;2023-02-15T07:02:44;102209.72;;;-1.13;100.00
60583;BME280;46415;47.536;19.066;2023-02-15T07:05:47;102203.19;;;-1.05;100.00
60583;BME280;46415;47.536;19.066;2023-02-15T07:08:51;102202.16;;;-0.85;100.00
60583;BME280;46415;47.536;19.066;2023-02-15T07:11:54;102209.37;;;-0.72;100.00
60583;BME280;46415;47.536;19.066;2023-02-15T07:15:18;102206.50;;;-0.56;100.00
60583;BME280;46415;47.536;19.066;2023-02-15T07:18:23;102211.97;;;-0.44;100.00
60583;BME280;46415;47.536;19.066;2023-02-15T07:21:26;102216.56;;;-0.32;100.00
60583;BME280;46415;47.536;19.066;2023-02-15T07:24:29;102210.88;;;-0.23;100.00
60583;BME280;46415;47.536;19.066;2023-02-15T07:27:31;102205.94;;;-0.17;100.00
60583;BME280;46415;47.536;19.066;2023-02-15T07:30:34;102197.94;;;-0.01;100.00
60583;BME280;46415;47.536;19.066;2023-02-15T07:33:38;102206.56;;;0.04;100.00
60583;BME280;46415;47.536;19.066;2023-02-15T07:36:41;102205.25;;;0.18;100.00
60583;BME280;46415;47.536;19.066;2023-02-15T07:39:46;102197.06;;;0.30;100.00
60583;BME280;46415;47.536;19.066;2023-02-15T07:42:50;102205.06;;;0.40;100.00
60583;BME280;46415;47.536;19.066;2023-02-15T07:46:00;102197.41;;;0.42;100.00
60583;BME280;46415;47.536;19.066;2023-02-15T07:49:04;102203.81;;;0.58;100.00
60583;BME280;46415;47.536;19.066;2023-02-15T07:52:07;102195.69;;;0.74;100.00
60583;BME280;46415;47.536;19.066;2023-02-15T07:55:10;102198.47;;;0.81;100.00
60583;BME280;46415;47.536;19.066;2023-02-15T07:58:15;102201.44;;;0.98;100.00
60583;BME280;46415;47.536;19.066;2023-02-15T08:04:20;102189.25;;;1.22;100.00
60583;BME280;46415;47.536;19.066;2023-02-15T08:07:23;102193.00;;;1.37;100.00
60583;BME280;46415;47.536;19.066;2023-02-15T08:10:26;102188.00;;;1.43;100.00
60583;BME280;46415;47.536;19.066;2023-02-15T08:17:17;102179.41;;;1.80;100.00
60583;BME280;46415;47.536;19.066;2023-02-15T08:20:20;102178.06;;;1.95;100.00
60583;BME280;46415;47.536;19.066;2023-02-15T08:23:23;102181.12;;;2.20;100.00
60583;BME280;46415;47.536;19.066;2023-02-15T08:26:27;102177.88;;;2.30;100.00
60583;BME280;46415;47.536;19.066;2023-02-15T08:29:31;102179.81;;;2.41;100.00
60583;BME280;46415;47.536;19.066;2023-02-15T08:32:33;102170.91;;;2.68;100.00
60583;BME280;46415;47.536;19.066;2023-02-15T08:35:36;102173.38;;;2.62;100.00
60583;BME280;46415;47.536;19.066;2023-02-15T08:38:40;102170.34;;;2.85;100.00
60583;BME280;46415;47.536;19.066;2023-02-15T08:41:45;102168.75;;;2.94;100.00
60583;BME280;46415;47.536;19.066;2023-02-15T08:44:48;102174.19;;;3.12;100.00
60583;BME280;46415;47.536;19.066;2023-02-15T08:47:53;102168.50;;;3.31;100.00
60583;BME280;46415;47.536;19.066;2023-02-15T08:50:55;102162.72;;;3.44;100.00
60583;BME280;46415;47.536;19.066;2023-02-15T08:54:01;102162.78;;;3.52;100.00
60583;BME280;46415;47.536;19.066;2023-02-15T08:57:04;102164.78;;;3.73;100.00
60583;BME280;46415;47.536;19.066;2023-02-15T09:00:10;102163.19;;;3.81;100.00
60583;BME280;46415;47.536;19.066;2023-02-15T09:03:13;102169.31;;;3.93;100.00
60583;BME280;46415;47.536;19.066;2023-02-15T09:06:16;102161.69;;;3.98;100.00
60583;BME280;46415;47.536;19.066;2023-02-15T09:09:19;102161.75;;;4.05;100.00
60583;BME280;46415;47.536;19.066;2023-02-15T09:12:22;102155.84;;;4.12;100.00
60583;BME280;46415;47.536;19.066;2023-02-15T09:15:25;102152.78;;;4.44;100.00
60583;BME280;46415;47.536;19.066;2023-02-15T09:18:32;102150.34;;;4.58;100.00
60583;BME280;46415;47.536;19.066;2023-02-15T09:21:38;102156.56;;;4.82;100.00
60583;BME280;46415;47.536;19.066;2023-02-15T09:24:41;102154.19;;;5.08;100.00
60583;BME280;46415;47.536;19.066;2023-02-15T09:27:43;102146.50;;;5.13;100.00
60583;BME280;46415;47.536;19.066;2023-02-15T09:30:46;102149.03;;;5.05;99.35
60583;BME280;46415;47.536;19.066;2023-02-15T09:33:50;102149.16;;;5.23;98.51
60583;BME280;46415;47.536;19.066;2023-02-15T09:36:52;102145.03;;;5.53;97.98
60583;BME280;46415;47.536;19.066;2023-02-15T09:39:55;102145.88;;;5.47;96.84
60583;BME280;46415;47.536;19.066;2023-02-15T09:46:33;102140.78;;;5.62;96.22
60583;BME280;46415;47.536;19.066;2023-02-15T09:56:39;102124.66;;;5.98;94.18
60583;BME280;46415;47.536;19.066;2023-02-15T10:13:27;102119.62;;;6.70;90.00
60583;BME280;46415;47.536;19.066;2023-02-15T10:16:49;102115.31;;;6.79;89.34
60583;BME280;46415;47.536;19.066;2023-02-15T10:23:43;102106.69;;;6.98;87.06
60583;BME280;46415;47.536;19.066;2023-02-15T10:26:49;102097.22;;;6.97;87.23
60583;BME280;46415;47.536;19.066;2023-02-15T10:30:08;102107.53;;;7.10;87.16
60583;BME280;46415;47.536;19.066;2023-02-15T10:43:27;102105.84;;;7.13;84.66
60583;BME280;46415;47.536;19.066;2023-02-15T10:49:47;102091.16;;;7.27;84.34
60583;BME280;46415;47.536;19.066;2023-02-15T10:59:42;102083.38;;;7.44;81.33
60583;BME280;46415;47.536;19.066;2023-02-15T11:06:19;102068.63;;;7.67;79.17
60583;BME280;46415;47.536;19.066;2023-02-15T11:09:27;102069.50;;;7.66;78.65
60583;BME280;46415;47.536;19.066;2023-02-15T11:12:33;102066.94;;;7.57;78.87
60583;BME280;46415;47.536;19.066;2023-02-15T11:15:50;102059.09;;;7.78;78.28
60583;BME280;46415;47.536;19.066;2023-02-15T11:22:21;102058.19;;;7.92;76.41
60583;BME280;46415;47.536;19.066;2023-02-15T11:25:33;102042.56;;;8.10;76.44
60583;BME280;46415;47.536;19.066;2023-02-15T11:28:43;102045.91;;;8.21;76.45
60583;BME280;46415;47.536;19.066;2023-02-15T11:32:07;102041.47;;;8.43;75.11
60583;BME280;46415;47.536;19.066;2023-02-15T11:38:29;102031.06;;;8.50;72.61
60583;BME280;46415;47.536;19.066;2023-02-15T11:41:38;102030.13;;;8.57;72.05
60583;BME280;46415;47.536;19.066;2023-02-15T11:47:54;102017.25;;;8.47;72.11
60583;BME280;46415;47.536;19.066;2023-02-15T11:50:58;102014.69;;;8.47;71.72
60583;BME280;46415;47.536;19.066;2023-02-15T11:54:02;102007.66;;;8.58;70.96
60583;BME280;46415;47.536;19.066;2023-02-15T11:57:19;102005.03;;;8.66;70.12
60583;BME280;46415;47.536;19.066;2023-02-15T12:10:24;102003.34;;;8.60;69.87
60583;BME280;46415;47.536;19.066;2023-02-15T12:13:27;101992.94;;;8.66;69.77
60583;BME280;46415;47.536;19.066;2023-02-15T12:16:51;101984.94;;;8.89;68.76
60583;BME280;46415;47.536;19.066;2023-02-15T12:19:58;101990.91;;;8.97;68.62
60583;BME280;46415;47.536;19.066;2023-02-15T12:23:05;101985.66;;;9.03;69.26
60583;BME280;46415;47.536;19.066;2023-02-15T12:26:09;101977.78;;;9.11;68.12
60583;BME280;46415;47.536;19.066;2023-02-15T12:29:16;101971.69;;;9.13;68.14
60583;BME280;46415;47.536;19.066;2023-02-15T12:32:26;101969.97;;;9.14;68.16
60583;BME280;46415;47.536;19.066;2023-02-15T12:35:32;101965.50;;;9.25;68.31
60583;BME280;46415;47.536;19.066;2023-02-15T12:38:36;101969.34;;;9.61;65.24
60583;BME280;46415;47.536;19.066;2023-02-15T12:41:57;101961.00;;;9.97;63.52
60583;BME280;46415;47.536;19.066;2023-02-15T12:45:04;101956.09;;;9.80;64.70
60583;BME280;46415;47.536;19.066;2023-02-15T12:48:21;101952.94;;;9.60;64.43
60583;BME280;46415;47.536;19.066;2023-02-15T12:51:24;101948.59;;;9.62;64.40
60583;BME280;46415;47.536;19.066;2023-02-15T12:54:32;101940.22;;;9.43;65.27
60583;BME280;46415;47.536;19.066;2023-02-15T12:57:36;101941.06;;;9.44;65.47
60583;BME280;46415;47.536;19.066;2023-02-15T13:00:40;101939.50;;;9.32;65.44
60583;BME280;46415;47.536;19.066;2023-02-15T13:04:21;101935.72;;;9.56;64.94
60583;BME280;46415;47.536;19.066;2023-02-15T13:07:28;101931.22;;;9.69;64.86
60583;BME280;46415;47.536;19.066;2023-02-15T13:10:40;101926.91;;;9.66;64.05
60583;BME280;46415;47.536;19.066;2023-02-15T13:13:53;101921.81;;;9.60;64.39
60583;BME280;46415;47.536;19.066;2023-02-15T13:16:58;101921.13;;;9.51;65.29
60583;BME280;46415;47.536;19.066;2023-02-15T13:20:22;101915.94;;;9.49;65.43
60583;BME280;46415;47.536;19.066;2023-02-15T13:23:27;101916.88;;;9.47;64.42
60583;BME280;46415;47.536;19.066;2023-02-15T13:26:32;101908.06;;;9.57;64.99
60583;BME280;46415;47.536;19.066;2023-02-15T13:29:37;101912.97;;;9.75;64.35
60583;BME280;46415;47.536;19.066;2023-02-15T13:32:42;101900.22;;;9.60;64.13
60583;BME280;46415;47.536;19.066;2023-02-15T13:35:59;101906.34;;;9.57;64.18
60583;BME280;46415;47.536;19.066;2023-02-15T13:42:18;101896.06;;;9.50;64.76
60583;BME280;46415;47.536;19.066;2023-02-15T13:52:28;101890.69;;;9.65;64.27
60583;BME280;46415;47.536;19.066;2023-02-15T14:10:18;101876.69;;;9.75;63.76
60583;BME280;46415;47.536;19.066;2023-02-15T14:15:49;101874.56;;;9.98;62.52
60583;BME280;46415;47.536;19.066;2023-02-15T14:22:36;101875.34;;;10.92;57.94
60583;BME280;46415;47.536;19.066;2023-02-15T14:25:48;101882.41;;;12.00;54.92
60583;BME280;46415;47.536;19.066;2023-02-15T14:35:28;101878.41;;;14.45;46.78
60583;BME280;46415;47.536;19.066;2023-02-15T14:42:43;101886.88;;;15.86;42.70
60583;BME280;46415;47.536;19.066;2023-02-15T14:46:19;101884.50;;;15.60;42.78
60583;BME280;46415;47.536;19.066;2023-02-15T14:49:30;101880.78;;;15.21;43.39
60583;BME280;46415;47.536;19.066;2023-02-15T14:53:38;101877.00;;;15.49;43.46
60583;BME280;46415;47.536;19.066;2023-02-15T14:56:22;101877.28;;;15.65;42.00
60583;BME280;46415;47.536;19.066;2023-02-15T14:59:25;101866.75;;;15.23;42.79
60583;BME280;46415;47.536;19.066;2023-02-15T15:02:41;101868.97;;;15.10;43.69
60583;BME280;46415;47.536;19.066;2023-02-15T15:05:52;101866.00;;;15.20;42.94
60583;BME280;46415;47.536;19.066;2023-02-15T15:09:00;101868.75;;;15.17;43.01
60583;BME280;46415;47.536;19.066;2023-02-15T15:18:48;101862.75;;;13.13;46.71
60583;BME280;46415;47.536;19.066;2023-02-15T15:21:52;101849.84;;;11.85;50.13
60583;BME280;46415;47.536;19.066;2023-02-15T15:25:10;101851.81;;;11.00;52.82
60583;BME280;46415;47.536;19.066;2023-02-15T15:31:52;101854.97;;;9.25;61.01
60583;BME280;46415;47.536;19.066;2023-02-15T15:45:28;101843.78;;;7.73;70.19
60583;BME280;46415;47.536;19.066;2023-02-15T15:48:38;101850.84;;;7.50;71.74
60583;BME280;46415;47.536;19.066;2023-02-15T15:51:43;101841.47;;;7.34;74.20
60583;BME280;46415;47.536;19.066;2023-02-15T15:54:50;101849.34;;;7.16;74.64
60583;BME280;46415;47.536;19.066;2023-02-15T15:57:59;101845.22;;;6.81;77.87
60583;BME280;46415;47.536;19.066;2023-02-15T16:01:04;101841.84;;;6.73;79.31
60583;BME280;46415;47.536;19.066;2023-02-15T16:04:14;101847.06;;;6.61;80.83
60583;BME280;46415;47.536;19.066;2023-02-15T16:07:25;101845.38;;;6.48;81.76
60583;BME280;46415;47.536;19.066;2023-02-15T16:10:30;101835.09;;;6.43;83.43
60583;BME280;46415;47.536;19.066;2023-02-15T16:13:34;101838.62;;;6.07;85.52
60583;BME280;46415;47.536;19.066;2023-02-15T16:16:38;101838.66;;;5.89;87.72
60583;BME280;46415;47.536;19.066;2023-02-15T16:19:41;101839.50;;;5.90;89.05
60583;BME280;46415;47.536;19.066;2023-02-15T16:22:48;101854.06;;;5.80;89.78
60583;BME280;46415;47.536;19.066;2023-02-15T16:28:58;101849.75;;;5.74;92.82
60583;BME280;46415;47.536;19.066;2023-02-15T16:32:05;101845.47;;;5.52;93.76
60583;BME280;46415;47.536;19.066;2023-02-15T16:35:16;101848.91;;;5.39;95.85
60583;BME280;46415;47.536;19.066;2023-02-15T16:41:48;101853.19;;;5.32;97.42
60583;BME280;46415;47.536;19.066;2023-02-15T16:45:00;101849.75;;;5.35;97.68
60583;BME280;46415;47.536;19.066;2023-02-15T16:48:11;101854.88;;;5.37;97.36
60583;BME280;46415;47.536;19.066;2023-02-15T16:51:21;101855.75;;;5.23;98.80
60583;BME280;46415;47.536;19.066;2023-02-15T16:54:27;101855.72;;;5.17;99.78
60583;BME280;46415;47.536;19.066;2023-02-15T16:57:33;101852.28;;;5.06;99.95
60583;BME280;46415;47.536;19.066;2023-02-15T17:00:38;101854.03;;;5.18;100.00
60583;BME280;46415;47.536;19.066;2023-02-15T17:03:48;101860.81;;;5.01;100.00
60583;BME280;46415;47.536;19.066;2023-02-15T17:10:01;101859.09;;;4.92;100.00
60583;BME280;46415;47.536;19.066;2023-02-15T17:16:27;101865.09;;;4.92;100.00
60583;BME280;46415;47.536;19.066;2023-02-15T17:19:53;101872.78;;;4.91;100.00
60583;BME280;46415;47.536;19.066;2023-02-15T17:22:55;101869.31;;;4.77;100.00
60583;BME280;46415;47.536;19.066;2023-02-15T17:26:02;101860.69;;;4.66;100.00
60583;BME280;46415;47.536;19.066;2023-02-15T17:29:30;101868.41;;;4.63;100.00
60583;BME280;46415;47.536;19.066;2023-02-15T17:32:35;101866.66;;;4.56;100.00
60583;BME280;46415;47.536;19.066;2023-02-15T17:35:39;101873.38;;;4.35;100.00
60583;BME280;46415;47.536;19.066;2023-02-15T17:42:00;101862.09;;;4.12;100.00
60583;BME280;46415;47.536;19.066;2023-02-15T17:45:03;101867.97;;;3.94;100.00
60583;BME280;46415;47.536;19.066;2023-02-15T17:48:12;101861.06;;;3.81;100.00
60583;BME280;46415;47.536;19.066;2023-02-15T17:51:21;101867.78;;;3.70;100.00
60583;BME280;46415;47.536;19.066;2023-02-15T17:54:25;101862.59;;;3.61;100.00
60583;BME280;46415;47.536;19.066;2023-02-15T17:57:55;101864.16;;;3.45;100.00
60583;BME280;46415;47.536;19.066;2023-02-15T18:01:06;101861.50;;;3.36;100.00
60583;BME280;46415;47.536;19.066;2023-02-15T18:04:33;101868.25;;;3.28;100.00
60583;BME280;46415;47.536;19.066;2023-02-15T18:07:56;101865.53;;;3.13;100.00
60583;BME280;46415;47.536;19.066;2023-02-15T18:11:18;101867.09;;;3.00;100.00
60583;BME280;46415;47.536;19.066;2023-02-15T18:14:39;101871.28;;;2.91;100.00
60583;BME280;46415;47.536;19.066;2023-02-15T18:17:45;101864.28;;;2.77;100.00
60583;BME280;46415;47.536;19.066;2023-02-15T18:20:48;101855.69;;;2.72;100.00
60583;BME280;46415;47.536;19.066;2023-02-15T18:23:52;101857.34;;;2.67;100.00
60583;BME280;46415;47.536;19.066;2023-02-15T18:26:55;101860.63;;;2.59;100.00
60583;BME280;46415;47.536;19.066;2023-02-15T18:29:58;101855.41;;;2.51;100.00
60583;BME280;46415;47.536;19.066;2023-02-15T18:33:02;101859.56;;;2.43;100.00
60583;BME280;46415;47.536;19.066;2023-02-15T18:36:07;101857.75;;;2.34;100.00
60583;BME280;46415;47.536;19.066;2023-02-15T18:39:24;101864.56;;;2.34;100.00
60583;BME280;46415;47.536;19.066;2023-02-15T18:42:31;101857.69;;;2.30;100.00
60583;BME280;46415;47.536;19.066;2023-02-15T18:45:35;101860.19;;;2.25;100.00
60583;BME280;46415;47.536;19.066;2023-02-15T18:48:40;101864.37;;;2.20;100.00
60583;BME280;46415;47.536;19.066;2023-02-15T18:51:43;101863.44;;;2.15;100.00
60583;BME280;46415;47.536;19.066;2023-02-15T18:54:57;101864.22;;;2.10;100.00
60583;BME280;46415;47.536;19.066;2023-02-15T18:58:02;101857.31;;;2.04;100.00
60583;BME280;46415;47.536;19.066;2023-02-15T19:01:05;101855.47;;;1.97;100.00
60583;BME280;46415;47.536;19.066;2023-02-15T19:04:09;101858.84;;;1.93;100.00
60583;BME280;46415;47.536;19.066;2023-02-15T19:10:23;101862.91;;;1.80;100.00